Pagina principală
METAR-TAF:

METAR-TAF

Aeroporturi :

Juanjuí, Peru

Latitudine: 07-10-10S, longitudine: 076-43-45W, elevație: 350 m

Observații meteo curente

Raportul a fost făcut în urmă cu 15 ore și 17 de minute, la 19:00 UTC
Vânt 5 kt de la Nord-est
Temperatură 34°C
Umiditate 60%
Presiune 1018 hPa
Vizibilitate de 10 km sau mai mult
Nori împrăștiați la o înălțime de 2100 picior

METAR: SPJI 131900Z 04005KT 9999 SCT021 34/25 Q1018 RMK PP000

Ora: 05:17 (10:17 UTC)

Prognoză

Raportul a fost făcut în urmă cu 17 ore și 17 de minute, la 17:00 UTC
Prognoză valabilă de la 13 ora 18 UTC la 14 ora 18 UTC
Vânt 4 kt de la Sud/Sud-est
Vizibilitate de 10 km sau mai mult
Nori împrăștiați la o înălțime de 2000 picior
Nori împrăștiați la o înălțime de 10000 picior

TAF: SPJI 131700Z 1318/1418 15004KT 9999 SCT020 SCT100 TX35/1320Z TN23/1411Z

Observații și prognoze meteo pentru peste 4.000 de aeroporturi (rapoarte METAR și TAF).

Stațiile disponibile sunt reprezentate pe hartă prin puncte galbene și roșii.

Țineți indicatorul mouse-ului pe punctul dorit pentru a vedea denumirea stației.

Apoi, faceți clic pentru a vedea observațiile și prognozele meteorologice.

Pentru a schimba harta: Pentru mărire, faceți clic pe butoanele verzi cu cruce neagră; pentru micșorare, pe butonul verde cu o liniuță; pentru hărți învecinate, pe săgețile verzi.


METAR-TAF: